Whitten, Iowa
Current Conditions -  °F | °C
As of 6:53 PM on Tuesday 21 Oct 2014 (Local Time) from KMIW Reporting Station
Clear Clear  
Wind Chill: 11°   Ceiling: Unl
Heat Index: 11°   Visibility: 10mi
Dew Point:   Wind: 6mph
Humidity: 63%   Direction: 110°ESE
Pressure: 30.15"   Gusts: NA
Location:  42.26°N, 93.01°W
Report Text: KMIW 212353Z AUTO 11005KT 10SM CLR 11/04 A3015 RMK AO2 SLP214 T01110044 10167 20106 51006
Loading
Personal Weather Stations






























Interactive Weather Map
Tropical Storm Tracking
New forecast layout! Learn more

10-Day Weather Forecast

Advertisements
Track Severe Weather on mobile